createdAt,value
2023-03-08T00:01:23.523Z,0.16
2023-03-08T00:03:54.645Z,0.12
2023-03-08T00:06:23.029Z,0.08
2023-03-08T00:08:58.404Z,0.05
2023-03-08T00:11:29.448Z,0.03
2023-03-08T00:13:58.270Z,-0.02
2023-03-08T00:16:26.318Z,-0.04
2023-03-08T00:18:56.396Z,-0.05
2023-03-08T00:21:24.495Z,-0.07
2023-03-08T00:23:55.206Z,-0.08
2023-03-08T00:26:23.692Z,-0.06
2023-03-08T00:28:53.101Z,-0.05
2023-03-08T00:31:22.480Z,-0.02
2023-03-08T00:33:54.978Z,0.02
2023-03-08T00:36:26.001Z,0.05
2023-03-08T00:38:54.299Z,0.08
2023-03-08T00:41:22.768Z,0.11
2023-03-08T00:43:51.422Z,0.15
2023-03-08T00:46:19.918Z,0.17
2023-03-08T00:48:49.808Z,0.20
2023-03-08T00:51:19.546Z,0.21
2023-03-08T00:53:48.512Z,0.24
2023-03-08T00:56:16.947Z,0.27
2023-03-08T00:58:45.116Z,0.30
2023-03-08T01:01:17.814Z,0.31
2023-03-08T01:03:48.351Z,0.33
2023-03-08T01:06:17.744Z,0.35
2023-03-08T01:08:46.875Z,0.36
2023-03-08T01:11:20.250Z,0.38
2023-03-08T01:13:49.102Z,0.38
2023-03-08T01:16:24.179Z,0.42
2023-03-08T01:18:52.766Z,0.45
2023-03-08T01:21:21.875Z,0.49
2023-03-08T01:23:50.359Z,0.52
2023-03-08T01:26:20.772Z,0.55
2023-03-08T01:28:49.194Z,0.56
2023-03-08T01:31:19.577Z,0.56
2023-03-08T01:33:49.187Z,0.56
2023-03-08T01:36:19.156Z,0.57
2023-03-08T01:38:47.640Z,0.58
2023-03-08T01:41:18.473Z,0.58
2023-03-08T01:43:49.893Z,0.58
2023-03-08T01:46:37.262Z,0.57
2023-03-08T01:49:33.651Z,0.57
2023-03-08T01:52:13.183Z,0.57
2023-03-08T01:55:06.443Z,0.58
2023-03-08T01:57:42.749Z,0.62
2023-03-08T02:00:18.399Z,0.64
2023-03-08T02:02:52.458Z,0.66
2023-03-08T02:05:21.059Z,0.67
2023-03-08T02:07:54.141Z,0.67
2023-03-08T02:10:26.733Z,0.69
2023-03-08T02:12:58.710Z,0.72
2023-03-08T02:15:28.109Z,0.74
2023-03-08T02:17:58.166Z,0.75
2023-03-08T02:20:32.612Z,0.76
2023-03-08T02:23:30.591Z,0.77
2023-03-08T02:26:03.539Z,0.78
2023-03-08T02:28:31.589Z,0.81
2023-03-08T02:30:59.838Z,0.83
2023-03-08T02:33:28.433Z,0.85
2023-03-08T02:35:58.553Z,0.89
2023-03-08T02:38:34.751Z,0.92
2023-03-08T02:41:02.893Z,0.95
2023-03-08T02:43:31.391Z,0.99
2023-03-08T02:46:00.078Z,1.01
2023-03-08T02:48:28.467Z,1.02
2023-03-08T02:50:59.929Z,1.03
2023-03-08T02:53:29.878Z,1.03
2023-03-08T02:55:58.283Z,1.05
2023-03-08T02:58:26.499Z,1.07
2023-03-08T03:00:54.972Z,1.06
2023-03-08T03:03:24.747Z,1.07
2023-03-08T03:05:52.937Z,1.07
2023-03-08T03:08:32.267Z,1.08
2023-03-08T03:11:00.705Z,1.08
2023-03-08T03:13:30.124Z,1.09
2023-03-08T03:15:59.039Z,1.09
2023-03-08T03:18:28.788Z,1.08
2023-03-08T03:21:03.433Z,1.08
2023-03-08T03:23:33.750Z,1.09
2023-03-08T03:26:06.824Z,1.08
2023-03-08T03:28:35.203Z,1.08
2023-03-08T03:31:08.069Z,1.09
2023-03-08T03:33:36.367Z,1.09
2023-03-08T03:36:06.077Z,1.10
2023-03-08T03:38:35.176Z,1.09
2023-03-08T03:41:05.079Z,1.09
2023-03-08T03:43:34.598Z,1.08
2023-03-08T03:46:06.425Z,1.09
2023-03-08T03:48:35.990Z,1.09
2023-03-08T03:51:06.830Z,1.08
2023-03-08T03:53:35.972Z,1.09
2023-03-08T03:56:04.197Z,1.11
2023-03-08T03:58:32.837Z,1.10
2023-03-08T04:01:14.907Z,1.08
2023-03-08T04:03:43.656Z,1.07
2023-03-08T04:06:20.672Z,1.07
2023-03-08T04:08:53.012Z,1.06
2023-03-08T04:11:24.178Z,1.06
2023-03-08T04:13:53.258Z,1.05
2023-03-08T04:16:30.014Z,1.08
2023-03-08T04:19:03.701Z,1.09
2023-03-08T04:21:32.442Z,1.08
2023-03-08T04:24:01.392Z,1.09
2023-03-08T04:26:30.029Z,1.11
2023-03-08T04:29:06.127Z,1.10
2023-03-08T04:31:35.334Z,1.10
2023-03-08T04:34:06.370Z,1.09
2023-03-08T04:36:35.526Z,1.07
2023-03-08T04:39:03.968Z,1.07
2023-03-08T04:41:34.841Z,1.07
2023-03-08T04:44:10.903Z,1.07
2023-03-08T04:46:43.141Z,1.06
2023-03-08T04:49:13.910Z,1.07
2023-03-08T04:51:44.848Z,1.09
2023-03-08T04:54:13.148Z,1.11
2023-03-08T04:56:46.384Z,1.12
2023-03-08T04:59:22.811Z,1.13
2023-03-08T05:01:52.850Z,1.13
2023-03-08T05:04:21.807Z,1.15
2023-03-08T05:06:49.879Z,1.17
2023-03-08T05:09:21.946Z,1.19
2023-03-08T05:11:52.237Z,1.20
2023-03-08T05:14:21.826Z,1.22
2023-03-08T05:16:50.695Z,1.23
2023-03-08T05:19:18.958Z,1.24
2023-03-08T05:21:50.876Z,1.25
2023-03-08T05:24:18.989Z,1.27
2023-03-08T05:26:46.971Z,1.27
2023-03-08T05:29:18.310Z,1.28
2023-03-08T05:31:50.514Z,1.29
2023-03-08T05:34:18.864Z,1.30
2023-03-08T05:36:48.824Z,1.31
2023-03-08T05:39:20.038Z,1.33
2023-03-08T05:41:54.973Z,1.35
2023-03-08T05:44:27.960Z,1.39
2023-03-08T05:46:56.502Z,1.41
2023-03-08T05:49:26.512Z,1.43
2023-03-08T05:51:54.932Z,1.46
2023-03-08T05:54:23.827Z,1.46
2023-03-08T05:56:53.705Z,1.50
2023-03-08T05:59:27.443Z,1.53
2023-03-08T06:01:59.650Z,1.58
2023-03-08T06:04:49.315Z,1.64
2023-03-08T06:07:22.779Z,1.70
2023-03-08T06:10:02.691Z,1.76
2023-03-08T06:12:35.624Z,1.83
2023-03-08T06:15:06.154Z,1.88
2023-03-08T06:17:41.270Z,1.91
2023-03-08T06:20:11.226Z,1.94
2023-03-08T06:22:41.650Z,1.97
2023-03-08T06:25:11.632Z,2.02
2023-03-08T06:27:40.979Z,2.07
2023-03-08T06:30:21.131Z,2.13
2023-03-08T06:32:49.705Z,2.20
2023-03-08T06:35:17.935Z,2.26
2023-03-08T06:37:50.005Z,2.34
2023-03-08T06:40:18.375Z,2.44
2023-03-08T06:42:46.455Z,2.52
2023-03-08T06:45:16.151Z,2.62
2023-03-08T06:47:44.318Z,2.70
2023-03-08T06:50:14.015Z,2.81
2023-03-08T06:52:43.633Z,2.91
2023-03-08T06:55:12.048Z,3.02
2023-03-08T06:57:40.817Z,3.12
2023-03-08T07:00:14.647Z,3.25
2023-03-08T07:02:43.437Z,3.39
2023-03-08T07:05:11.550Z,3.52
2023-03-08T07:07:42.290Z,3.60
2023-03-08T07:10:11.911Z,3.68
2023-03-08T07:12:43.698Z,3.75
2023-03-08T07:15:14.671Z,3.84
2023-03-08T07:17:45.879Z,3.98
2023-03-08T07:20:14.431Z,4.12
2023-03-08T07:22:48.514Z,4.22
2023-03-08T07:25:18.238Z,4.31
2023-03-08T07:27:47.196Z,4.41
2023-03-08T07:30:15.816Z,4.49
2023-03-08T07:32:44.063Z,4.54
2023-03-08T07:35:14.164Z,4.56
2023-03-08T07:37:46.856Z,4.58
2023-03-08T07:40:16.385Z,4.60
2023-03-08T07:42:46.053Z,4.61
2023-03-08T07:45:34.429Z,4.66
2023-03-08T07:48:03.185Z,4.76
2023-03-08T07:50:31.488Z,4.87
2023-03-08T07:53:03.437Z,4.94
2023-03-08T07:55:34.402Z,5.02
2023-03-08T07:58:02.981Z,5.07
2023-03-08T08:00:31.350Z,5.09
2023-03-08T08:02:59.908Z,5.14
2023-03-08T08:05:28.660Z,5.17
2023-03-08T08:07:59.892Z,5.18
2023-03-08T08:10:29.488Z,5.18
2023-03-08T08:12:58.683Z,5.22
2023-03-08T08:15:27.500Z,5.26
2023-03-08T08:17:59.754Z,5.36
2023-03-08T08:20:28.799Z,5.56
2023-03-08T08:22:57.429Z,5.83
2023-03-08T08:25:25.506Z,6.08
2023-03-08T08:27:54.150Z,6.20
2023-03-08T08:30:22.282Z,6.26
2023-03-08T08:32:53.429Z,6.29
2023-03-08T08:35:22.773Z,6.29
2023-03-08T08:37:52.345Z,6.26
2023-03-08T08:40:20.608Z,6.24
2023-03-08T08:42:48.684Z,6.18
2023-03-08T08:45:17.197Z,6.10
2023-03-08T08:47:45.628Z,6.00
2023-03-08T08:50:14.326Z,5.96
2023-03-08T08:52:42.634Z,5.94
2023-03-08T08:55:17.670Z,5.99
2023-03-08T08:57:45.883Z,6.04
2023-03-08T09:00:15.031Z,6.16
2023-03-08T09:02:43.150Z,6.34
2023-03-08T09:05:12.979Z,6.47
2023-03-08T09:07:41.571Z,6.54
2023-03-08T09:10:10.110Z,6.59
2023-03-08T09:12:38.613Z,6.64
2023-03-08T09:15:10.295Z,6.69
2023-03-08T09:17:39.761Z,6.73
2023-03-08T09:20:16.472Z,6.75
2023-03-08T09:22:45.753Z,6.78
2023-03-08T09:25:14.346Z,6.77
2023-03-08T09:27:43.264Z,6.75
2023-03-08T09:30:13.966Z,6.67
2023-03-08T09:32:48.383Z,6.59
2023-03-08T09:35:17.433Z,6.56
2023-03-08T09:37:45.745Z,6.55
2023-03-08T09:40:19.215Z,6.57
2023-03-08T09:42:47.575Z,6.60
2023-03-08T09:45:23.315Z,6.59
2023-03-08T09:48:13.474Z,6.57
2023-03-08T09:50:46.279Z,6.54
2023-03-08T09:53:17.450Z,6.56
2023-03-08T09:55:54.813Z,6.58
2023-03-08T09:58:35.546Z,6.66
2023-03-08T10:01:15.907Z,6.74
2023-03-08T10:04:23.426Z,6.79
2023-03-08T10:06:57.194Z,6.75
2023-03-08T10:09:34.625Z,6.69
2023-03-08T10:12:13.462Z,6.58
2023-03-08T10:14:44.191Z,6.47
2023-03-08T10:17:17.384Z,6.41
2023-03-08T10:20:14.561Z,6.36
2023-03-08T10:22:46.880Z,6.35
2023-03-08T10:25:26.602Z,6.31
2023-03-08T10:27:56.627Z,6.32
2023-03-08T10:30:33.156Z,6.29
2023-03-08T10:33:03.547Z,6.23
2023-03-08T10:35:44.114Z,6.17
2023-03-08T10:38:16.576Z,6.13
2023-03-08T10:40:45.656Z,6.08
2023-03-08T10:43:41.310Z,5.96
2023-03-08T10:46:17.482Z,5.82
2023-03-08T10:48:45.893Z,5.76
2023-03-08T10:51:22.196Z,5.75
2023-03-08T10:54:02.758Z,5.72
2023-03-08T10:56:59.989Z,5.72
2023-03-08T10:59:33.249Z,5.72
2023-03-08T11:02:03.667Z,5.74
2023-03-08T11:04:32.261Z,5.76
2023-03-08T11:07:10.673Z,5.73
2023-03-08T11:09:42.391Z,5.67
2023-03-08T11:12:21.255Z,5.61
2023-03-08T11:14:52.683Z,5.55
2023-03-08T11:17:28.299Z,5.46
2023-03-08T11:20:08.101Z,5.38
2023-03-08T11:23:16.382Z,5.29
2023-03-08T11:25:50.754Z,5.22
2023-03-08T11:29:13.038Z,5.21
2023-03-08T11:31:58.646Z,5.25
2023-03-08T11:34:40.213Z,5.32
2023-03-08T11:37:23.363Z,5.37
2023-03-08T11:40:16.673Z,5.41
2023-03-08T11:43:11.528Z,5.46
2023-03-08T11:46:30.935Z,5.66
2023-03-08T11:49:18.803Z,6.48
2023-03-08T11:52:39.172Z,7.40
2023-03-08T11:55:22.615Z,8.18
2023-03-08T11:58:24.730Z,8.79
2023-03-08T12:01:05.292Z,9.17
2023-03-08T12:03:35.536Z,9.39
2023-03-08T12:06:40.980Z,9.68
2023-03-08T12:09:23.690Z,10.19
2023-03-08T12:11:56.402Z,10.69
2023-03-08T12:14:30.638Z,10.84
2023-03-08T12:17:13.683Z,10.95
2023-03-08T12:19:46.387Z,10.79
2023-03-08T12:22:33.757Z,10.60
2023-03-08T12:25:09.905Z,10.23
2023-03-08T12:27:44.551Z,9.96
2023-03-08T12:30:40.569Z,9.99
2023-03-08T12:33:11.400Z,9.94
2023-03-08T12:35:51.156Z,9.52
2023-03-08T12:38:20.159Z,9.42
2023-03-08T12:40:50.867Z,9.36
2023-03-08T12:43:22.433Z,9.31
2023-03-08T12:45:59.940Z,9.26
2023-03-08T12:48:32.074Z,9.22
2023-03-08T12:51:02.350Z,9.38
2023-03-08T12:53:38.310Z,9.64
2023-03-08T12:56:09.319Z,9.81
2023-03-08T12:59:01.162Z,9.78
2023-03-08T13:01:32.521Z,9.62
2023-03-08T13:04:04.485Z,9.52
2023-03-08T13:07:09.879Z,9.50
2023-03-08T13:09:47.046Z,9.40
2023-03-08T13:12:16.980Z,9.55
2023-03-08T13:15:24.751Z,9.86
2023-03-08T13:18:00.884Z,10.13
2023-03-08T13:20:36.299Z,10.20
2023-03-08T13:23:08.622Z,10.31
2023-03-08T13:26:06.199Z,10.46
2023-03-08T13:28:47.078Z,10.60
2023-03-08T13:31:24.528Z,10.73
2023-03-08T13:33:55.772Z,10.84
2023-03-08T13:36:29.197Z,10.86
2023-03-08T13:39:01.635Z,10.84
2023-03-08T13:41:39.057Z,10.86
2023-03-08T13:44:19.522Z,10.81
2023-03-08T13:46:49.492Z,10.51
2023-03-08T13:49:27.069Z,10.44
2023-03-08T13:52:00.392Z,10.39
2023-03-08T13:54:37.551Z,10.42
2023-03-08T13:57:07.623Z,10.55
2023-03-08T13:59:38.158Z,10.83
2023-03-08T14:02:26.922Z,10.84
2023-03-08T14:04:55.470Z,10.79
2023-03-08T14:07:29.227Z,10.63
2023-03-08T14:09:57.923Z,10.43
2023-03-08T14:12:28.664Z,10.48
2023-03-08T14:15:03.256Z,10.44
2023-03-08T14:17:34.808Z,10.55
2023-03-08T14:20:20.265Z,10.49
2023-03-08T14:22:53.346Z,10.01
2023-03-08T14:25:30.618Z,9.67
2023-03-08T14:27:59.617Z,9.61
2023-03-08T14:30:30.189Z,9.85
2023-03-08T14:33:41.841Z,10.00
2023-03-08T14:36:10.519Z,9.68
2023-03-08T14:38:38.567Z,9.73
2023-03-08T14:41:06.911Z,9.82
2023-03-08T14:43:34.869Z,9.64
2023-03-08T14:46:06.954Z,9.43
2023-03-08T14:48:36.410Z,9.29
2023-03-08T14:51:25.335Z,9.28
2023-03-08T14:54:02.134Z,9.37
2023-03-08T14:56:33.235Z,9.44
2023-03-08T14:59:02.422Z,9.30
2023-03-08T15:01:35.711Z,9.35
2023-03-08T15:04:05.101Z,9.24
2023-03-08T15:06:34.937Z,9.13
2023-03-08T15:09:04.108Z,8.97
2023-03-08T15:11:32.173Z,8.84
2023-03-08T15:14:00.215Z,8.77
2023-03-08T15:16:31.210Z,8.63
2023-03-08T15:18:59.572Z,8.35
2023-03-08T15:21:28.648Z,8.14
2023-03-08T15:23:57.914Z,7.95
2023-03-08T15:26:28.262Z,7.79
2023-03-08T15:28:57.657Z,7.68
2023-03-08T15:31:27.067Z,7.57
2023-03-08T15:33:55.230Z,7.47
2023-03-08T15:36:25.430Z,7.36
2023-03-08T15:38:53.561Z,7.28
2023-03-08T15:41:22.425Z,7.21
2023-03-08T15:43:51.543Z,7.12
2023-03-08T15:46:21.983Z,7.04
2023-03-08T15:48:51.353Z,6.98
2023-03-08T15:51:21.184Z,6.91
2023-03-08T15:53:49.309Z,6.83
2023-03-08T15:56:17.692Z,6.77
2023-03-08T15:58:46.784Z,6.70
2023-03-08T16:01:14.874Z,6.65
2023-03-08T16:03:43.011Z,6.61
2023-03-08T16:06:12.383Z,6.60
2023-03-08T16:08:42.356Z,6.58
2023-03-08T16:11:15.707Z,6.55
2023-03-08T16:13:48.496Z,6.52
2023-03-08T16:16:16.556Z,6.48
2023-03-08T16:18:48.912Z,6.44
2023-03-08T16:21:17.635Z,6.41
2023-03-08T16:23:45.662Z,6.36
2023-03-08T16:26:17.000Z,6.33
2023-03-08T16:28:46.943Z,6.28
2023-03-08T16:31:15.751Z,6.23
2023-03-08T16:33:44.953Z,6.19
2023-03-08T16:36:13.479Z,6.17
2023-03-08T16:38:44.010Z,6.14
2023-03-08T16:41:15.157Z,6.13
2023-03-08T16:43:48.714Z,6.09
2023-03-08T16:46:21.550Z,6.06
2023-03-08T16:48:54.649Z,6.04
2023-03-08T16:51:27.890Z,6.01
2023-03-08T16:53:56.203Z,5.96
2023-03-08T16:56:26.713Z,5.92
2023-03-08T16:58:56.149Z,5.86
2023-03-08T17:01:30.150Z,5.79
2023-03-08T17:03:58.691Z,5.68
2023-03-08T17:06:29.384Z,5.60
2023-03-08T17:08:59.051Z,5.54
2023-03-08T17:11:29.113Z,5.47
2023-03-08T17:13:59.973Z,5.40
2023-03-08T17:16:35.984Z,5.35
2023-03-08T17:19:07.359Z,5.29
2023-03-08T17:21:39.028Z,5.23
2023-03-08T17:24:12.961Z,5.16
2023-03-08T17:26:43.029Z,5.08
2023-03-08T17:29:13.224Z,5.00
2023-03-08T17:31:41.251Z,4.92
2023-03-08T17:34:09.454Z,4.83
2023-03-08T17:36:38.293Z,4.74
2023-03-08T17:39:07.211Z,4.67
2023-03-08T17:41:38.842Z,4.61
2023-03-08T17:44:07.024Z,4.55
2023-03-08T17:46:35.188Z,4.52
2023-03-08T17:49:03.940Z,4.51
2023-03-08T17:51:32.869Z,4.49
2023-03-08T17:54:07.612Z,4.47
2023-03-08T17:56:38.685Z,4.42
2023-03-08T17:59:08.013Z,4.38
2023-03-08T18:01:37.957Z,4.35
2023-03-08T18:04:07.486Z,4.31
2023-03-08T18:06:38.274Z,4.28
2023-03-08T18:09:12.417Z,4.25
2023-03-08T18:11:41.562Z,4.22
2023-03-08T18:14:12.134Z,4.21
2023-03-08T18:16:41.444Z,4.17
2023-03-08T18:19:16.853Z,4.16
2023-03-08T18:21:54.107Z,4.14
2023-03-08T18:24:22.223Z,4.11
2023-03-08T18:26:53.841Z,4.09
2023-03-08T18:29:22.043Z,4.07
2023-03-08T18:31:50.405Z,4.06
2023-03-08T18:34:18.890Z,4.04
2023-03-08T18:36:46.946Z,4.02
2023-03-08T18:39:15.016Z,3.98
2023-03-08T18:41:43.150Z,3.93
2023-03-08T18:44:14.694Z,3.87
2023-03-08T18:46:44.059Z,3.83
2023-03-08T18:49:12.811Z,3.78
2023-03-08T18:51:41.884Z,3.74
2023-03-08T18:54:20.542Z,3.70
2023-03-08T18:56:50.072Z,3.69
2023-03-08T18:59:18.148Z,3.65
2023-03-08T19:01:50.389Z,3.61
2023-03-08T19:04:18.813Z,3.56
2023-03-08T19:06:47.009Z,3.49
2023-03-08T19:09:17.213Z,3.36
2023-03-08T19:11:48.536Z,3.25
2023-03-08T19:14:16.897Z,3.17
2023-03-08T19:16:46.503Z,3.08
2023-03-08T19:19:15.445Z,3.02
2023-03-08T19:21:46.686Z,2.92
2023-03-08T19:24:16.746Z,2.82
2023-03-08T19:26:47.574Z,2.75
2023-03-08T19:29:16.983Z,2.71
2023-03-08T19:31:48.896Z,2.67
2023-03-08T19:34:21.833Z,2.63
2023-03-08T19:36:50.204Z,2.58
2023-03-08T19:39:21.737Z,2.54
2023-03-08T19:41:55.727Z,2.52
2023-03-08T19:44:24.061Z,2.50
2023-03-08T19:49:49.799Z,2.40
2023-03-08T19:52:18.368Z,2.37
2023-03-08T19:54:49.383Z,2.35
2023-03-08T19:57:17.713Z,2.34
2023-03-08T19:59:45.878Z,2.38
2023-03-08T20:02:20.475Z,2.40
2023-03-08T20:04:48.718Z,2.42
2023-03-08T20:07:17.391Z,2.43
2023-03-08T20:09:46.109Z,2.52
2023-03-08T20:12:19.231Z,2.63
2023-03-08T20:14:50.365Z,2.67
2023-03-08T20:17:18.434Z,2.68
2023-03-08T20:19:50.351Z,2.68
2023-03-08T20:22:18.461Z,2.65
2023-03-08T20:24:52.229Z,2.64
2023-03-08T20:27:21.106Z,2.63
2023-03-08T20:29:51.839Z,2.59
2023-03-08T20:32:20.512Z,2.58
2023-03-08T20:34:49.395Z,2.61
2023-03-08T20:37:19.855Z,2.65
2023-03-08T20:39:54.452Z,2.66
2023-03-08T20:42:26.990Z,2.65
2023-03-08T20:44:55.226Z,2.59
2023-03-08T20:47:23.565Z,2.55
2023-03-08T20:49:51.844Z,2.55
2023-03-08T20:52:20.202Z,2.55
2023-03-08T20:54:48.298Z,2.56
2023-03-08T20:57:16.356Z,2.55
2023-03-08T20:59:44.620Z,2.54
2023-03-08T21:02:12.825Z,2.49
2023-03-08T21:04:41.015Z,2.45
2023-03-08T21:07:13.000Z,2.41
2023-03-08T21:09:43.674Z,2.38
2023-03-08T21:12:11.778Z,2.34
2023-03-08T21:14:45.128Z,2.30
2023-03-08T21:17:13.308Z,2.25
2023-03-08T21:19:41.282Z,2.20
2023-03-08T21:22:10.781Z,2.15
2023-03-08T21:24:39.416Z,2.09
2023-03-08T21:27:10.910Z,2.03
2023-03-08T21:29:38.981Z,1.95
2023-03-08T21:32:06.994Z,1.88
2023-03-08T21:34:35.562Z,1.80
2023-03-08T21:37:10.125Z,1.77
2023-03-08T21:39:38.266Z,1.76
2023-03-08T21:42:06.943Z,1.77
2023-03-08T21:44:35.482Z,1.79
2023-03-08T21:47:08.739Z,1.82
2023-03-08T21:49:37.532Z,1.85
2023-03-08T21:52:09.805Z,1.85
2023-03-08T21:54:38.215Z,1.85
2023-03-08T21:57:06.350Z,1.83
2023-03-08T21:59:34.500Z,1.83
2023-03-08T22:02:02.937Z,1.82
2023-03-08T22:04:31.188Z,1.78
2023-03-08T22:06:59.243Z,1.76
2023-03-08T22:09:29.801Z,1.78
2023-03-08T22:11:59.695Z,1.81
2023-03-08T22:14:28.439Z,1.80
2023-03-08T22:17:03.301Z,1.74
2023-03-08T22:19:32.163Z,1.65
2023-03-08T22:22:00.956Z,1.57
2023-03-08T22:24:32.994Z,1.51
2023-03-08T22:27:01.649Z,1.48
2023-03-08T22:29:29.786Z,1.49
2023-03-08T22:31:57.904Z,1.54
2023-03-08T22:34:25.919Z,1.62
2023-03-08T22:36:55.175Z,1.68
2023-03-08T22:39:23.605Z,1.72
2023-03-08T22:41:51.632Z,1.74
2023-03-08T22:44:19.814Z,1.76
2023-03-08T22:46:48.645Z,1.73
2023-03-08T22:49:17.165Z,1.71
2023-03-08T22:51:45.453Z,1.69
2023-03-08T22:54:18.189Z,1.67
2023-03-08T22:56:47.019Z,1.67
2023-03-08T22:59:16.186Z,1.69
2023-03-08T23:01:44.588Z,1.72
2023-03-08T23:04:13.679Z,1.73
2023-03-08T23:06:43.337Z,1.76
2023-03-08T23:09:12.902Z,1.81
2023-03-08T23:11:45.602Z,1.83
2023-03-08T23:14:16.681Z,1.87
2023-03-08T23:16:45.994Z,1.91
2023-03-08T23:19:17.268Z,1.97
2023-03-08T23:22:05.199Z,2.04
2023-03-08T23:24:40.802Z,2.11
2023-03-08T23:27:09.881Z,2.17
2023-03-08T23:29:38.113Z,2.25
2023-03-08T23:32:07.336Z,2.32
